sensor_id;sensor_type;location;lat;lon;timestamp;pressure;altitude;pressure_sealevel;temperature;humidity
37852;BME280;23691;52.486;4.650;2024-02-16T05:32:35;100742.47;;;12.16;77.43
37852;BME280;23691;52.486;4.650;2024-02-16T05:35:01;100751.34;;;12.16;77.59
37852;BME280;23691;52.486;4.650;2024-02-16T05:37:30;100756.53;;;12.18;77.54
37852;BME280;23691;52.486;4.650;2024-02-16T05:39:57;100747.47;;;12.19;77.35
37852;BME280;23691;52.486;4.650;2024-02-16T05:42:33;100754.84;;;12.17;77.59
37852;BME280;23691;52.486;4.650;2024-02-16T05:44:58;100751.81;;;12.20;77.56
37852;BME280;23691;52.486;4.650;2024-02-16T05:47:24;100764.88;;;12.23;77.40
37852;BME280;23691;52.486;4.650;2024-02-16T05:49:49;100750.63;;;12.22;77.31
37852;BME280;23691;52.486;4.650;2024-02-16T05:52:15;100755.00;;;12.23;77.26
37852;BME280;23691;52.486;4.650;2024-02-16T05:54:48;100769.03;;;12.25;77.24
37852;BME280;23691;52.486;4.650;2024-02-16T05:57:16;100770.59;;;12.20;77.39
37852;BME280;23691;52.486;4.650;2024-02-16T05:59:42;100771.41;;;12.20;77.43
37852;BME280;23691;52.486;4.650;2024-02-16T06:02:07;100765.22;;;12.20;77.37
37852;BME280;23691;52.486;4.650;2024-02-16T06:04:34;100760.88;;;12.19;77.36
37852;BME280;23691;52.486;4.650;2024-02-16T06:06:59;100762.75;;;12.18;77.19
37852;BME280;23691;52.486;4.650;2024-02-16T06:09:25;100765.41;;;12.18;77.49
37852;BME280;23691;52.486;4.650;2024-02-16T06:11:51;100779.53;;;12.12;77.59
37852;BME280;23691;52.486;4.650;2024-02-16T06:14:17;100778.03;;;12.10;77.66
37852;BME280;23691;52.486;4.650;2024-02-16T06:16:43;100776.84;;;12.12;77.68
37852;BME280;23691;52.486;4.650;2024-02-16T06:19:08;100765.75;;;12.15;77.86
37852;BME280;23691;52.486;4.650;2024-02-16T06:21:56;100770.13;;;12.16;77.73
37852;BME280;23691;52.486;4.650;2024-02-16T06:24:26;100779.00;;;12.17;77.51
37852;BME280;23691;52.486;4.650;2024-02-16T06:26:53;100777.66;;;12.21;77.48
37852;BME280;23691;52.486;4.650;2024-02-16T06:29:22;100780.50;;;12.19;77.59
37852;BME280;23691;52.486;4.650;2024-02-16T06:31:51;100783.34;;;12.18;77.62
37852;BME280;23691;52.486;4.650;2024-02-16T06:34:18;100782.34;;;12.19;77.92
37852;BME280;23691;52.486;4.650;2024-02-16T06:36:44;100779.66;;;12.19;77.75
37852;BME280;23691;52.486;4.650;2024-02-16T06:39:11;100785.50;;;12.22;77.78
37852;BME280;23691;52.486;4.650;2024-02-16T06:41:42;100788.84;;;12.24;77.88
37852;BME280;23691;52.486;4.650;2024-02-16T06:44:09;100783.47;;;12.24;77.86
37852;BME280;23691;52.486;4.650;2024-02-16T06:46:35;100781.63;;;12.25;77.80
37852;BME280;23691;52.486;4.650;2024-02-16T06:49:00;100790.34;;;12.27;77.85
37852;BME280;23691;52.486;4.650;2024-02-16T06:51:26;100793.50;;;12.31;77.98
37852;BME280;23691;52.486;4.650;2024-02-16T06:53:54;100798.69;;;12.32;77.76
37852;BME280;23691;52.486;4.650;2024-02-16T06:56:20;100801.88;;;12.36;77.70
37852;BME280;23691;52.486;4.650;2024-02-16T06:58:47;100798.53;;;12.34;77.76
37852;BME280;23691;52.486;4.650;2024-02-16T07:01:13;100804.19;;;12.39;77.63
37852;BME280;23691;52.486;4.650;2024-02-16T07:03:39;100808.63;;;12.23;78.28
37852;BME280;23691;52.486;4.650;2024-02-16T07:06:05;100818.19;;;12.26;78.49
37852;BME280;23691;52.486;4.650;2024-02-16T07:08:37;100815.81;;;12.23;78.33
37852;BME280;23691;52.486;4.650;2024-02-16T07:11:04;100817.75;;;12.37;78.19
37852;BME280;23691;52.486;4.650;2024-02-16T07:13:31;100820.28;;;12.39;78.03
37852;BME280;23691;52.486;4.650;2024-02-16T07:15:57;100828.81;;;12.42;78.04
37852;BME280;23691;52.486;4.650;2024-02-16T07:18:22;100821.41;;;12.44;78.18
37852;BME280;23691;52.486;4.650;2024-02-16T07:20:48;100830.97;;;12.47;78.17
37852;BME280;23691;52.486;4.650;2024-02-16T07:23:55;100816.53;;;12.48;78.30
37852;BME280;23691;52.486;4.650;2024-02-16T07:26:31;100823.72;;;12.48;78.56
37852;BME280;23691;52.486;4.650;2024-02-16T07:28:58;100837.34;;;12.46;78.76
37852;BME280;23691;52.486;4.650;2024-02-16T07:31:24;100816.91;;;12.68;78.28
37852;BME280;23691;52.486;4.650;2024-02-16T07:33:53;100835.47;;;12.78;78.17
37852;BME280;23691;52.486;4.650;2024-02-16T07:36:20;100820.84;;;12.80;78.23
37852;BME280;23691;52.486;4.650;2024-02-16T07:38:46;100846.66;;;12.81;78.26
37852;BME280;23691;52.486;4.650;2024-02-16T07:41:13;100857.91;;;12.85;78.48
37852;BME280;23691;52.486;4.650;2024-02-16T07:43:39;100851.50;;;12.86;78.63
37852;BME280;23691;52.486;4.650;2024-02-16T07:46:06;100850.69;;;12.85;78.71
37852;BME280;23691;52.486;4.650;2024-02-16T07:48:34;100850.47;;;12.87;78.80
37852;BME280;23691;52.486;4.650;2024-02-16T07:51:04;100864.41;;;12.91;78.88
37852;BME280;23691;52.486;4.650;2024-02-16T07:53:33;100870.75;;;12.89;79.03
37852;BME280;23691;52.486;4.650;2024-02-16T07:56:00;100875.97;;;12.91;79.12
37852;BME280;23691;52.486;4.650;2024-02-16T07:58:30;100873.56;;;12.96;78.82
37852;BME280;23691;52.486;4.650;2024-02-16T08:01:14;100889.31;;;12.99;78.56
37852;BME280;23691;52.486;4.650;2024-02-16T08:04:16;100884.91;;;13.06;78.33
37852;BME280;23691;52.486;4.650;2024-02-16T08:06:43;100889.75;;;13.11;78.08
37852;BME280;23691;52.486;4.650;2024-02-16T08:09:19;100886.88;;;13.13;78.12
37852;BME280;23691;52.486;4.650;2024-02-16T08:11:45;100897.44;;;13.14;77.89
37852;BME280;23691;52.486;4.650;2024-02-16T08:14:12;100908.84;;;13.16;77.89
37852;BME280;23691;52.486;4.650;2024-02-16T08:16:38;100917.25;;;13.13;77.98
37852;BME280;23691;52.486;4.650;2024-02-16T08:19:08;100925.69;;;13.10;77.86
37852;BME280;23691;52.486;4.650;2024-02-16T08:21:34;100923.84;;;13.10;77.97
37852;BME280;23691;52.486;4.650;2024-02-16T08:24:01;100920.13;;;13.11;77.93
37852;BME280;23691;52.486;4.650;2024-02-16T08:26:29;100933.84;;;13.17;77.88
37852;BME280;23691;52.486;4.650;2024-02-16T08:28:56;100940.25;;;13.16;77.86
37852;BME280;23691;52.486;4.650;2024-02-16T08:31:23;100939.66;;;13.05;77.84
37852;BME280;23691;52.486;4.650;2024-02-16T08:33:50;100957.25;;;13.08;77.69
37852;BME280;23691;52.486;4.650;2024-02-16T08:36:20;100945.16;;;13.12;77.30
37852;BME280;23691;52.486;4.650;2024-02-16T08:38:53;100958.38;;;13.14;77.05
37852;BME280;23691;52.486;4.650;2024-02-16T08:41:21;100959.06;;;13.16;77.16
37852;BME280;23691;52.486;4.650;2024-02-16T08:43:48;100952.84;;;13.15;76.95
37852;BME280;23691;52.486;4.650;2024-02-16T08:46:15;100964.25;;;13.17;77.02
37852;BME280;23691;52.486;4.650;2024-02-16T08:48:44;100959.06;;;13.16;76.94
37852;BME280;23691;52.486;4.650;2024-02-16T08:51:11;100962.34;;;13.03;77.18
37852;BME280;23691;52.486;4.650;2024-02-16T08:53:38;100966.97;;;13.09;77.08
37852;BME280;23691;52.486;4.650;2024-02-16T08:56:09;100967.84;;;13.09;76.87
37852;BME280;23691;52.486;4.650;2024-02-16T08:58:37;100975.41;;;13.06;77.10
37852;BME280;23691;52.486;4.650;2024-02-16T09:01:04;100977.94;;;12.99;77.12
37852;BME280;23691;52.486;4.650;2024-02-16T09:03:31;100980.03;;;12.89;77.25
37852;BME280;23691;52.486;4.650;2024-02-16T09:06:04;100992.75;;;12.95;77.11
37852;BME280;23691;52.486;4.650;2024-02-16T09:08:30;100992.09;;;12.93;77.10
37852;BME280;23691;52.486;4.650;2024-02-16T09:11:01;101006.72;;;12.91;77.23
37852;BME280;23691;52.486;4.650;2024-02-16T09:13:35;101008.91;;;12.87;77.33
37852;BME280;23691;52.486;4.650;2024-02-16T09:16:02;101001.19;;;12.84;77.73
37852;BME280;23691;52.486;4.650;2024-02-16T09:18:32;101008.13;;;12.78;77.88
37852;BME280;23691;52.486;4.650;2024-02-16T09:20:58;101019.22;;;12.75;78.11
37852;BME280;23691;52.486;4.650;2024-02-16T09:23:31;101017.72;;;12.73;78.46
37852;BME280;23691;52.486;4.650;2024-02-16T09:26:00;101023.25;;;12.71;78.73
37852;BME280;23691;52.486;4.650;2024-02-16T09:28:28;101026.84;;;12.55;79.42
37852;BME280;23691;52.486;4.650;2024-02-16T09:30:54;101039.91;;;12.50;79.62
37852;BME280;23691;52.486;4.650;2024-02-16T09:33:21;101041.56;;;12.59;79.63
37852;BME280;23691;52.486;4.650;2024-02-16T09:35:48;101048.31;;;12.47;80.16
37852;BME280;23691;52.486;4.650;2024-02-16T09:38:15;101054.81;;;12.61;79.84
37852;BME280;23691;52.486;4.650;2024-02-16T09:40:43;101063.56;;;12.63;79.81
37852;BME280;23691;52.486;4.650;2024-02-16T09:43:10;101064.53;;;12.62;80.18
37852;BME280;23691;52.486;4.650;2024-02-16T09:45:37;101069.59;;;12.57;80.27
37852;BME280;23691;52.486;4.650;2024-02-16T09:48:08;101075.50;;;12.44;80.92
37852;BME280;23691;52.486;4.650;2024-02-16T09:50:36;101072.84;;;12.36;81.52
37852;BME280;23691;52.486;4.650;2024-02-16T09:53:05;101086.06;;;12.37;81.77
37852;BME280;23691;52.486;4.650;2024-02-16T09:55:32;101094.44;;;12.42;81.74
37852;BME280;23691;52.486;4.650;2024-02-16T09:58:24;101101.00;;;12.40;82.05
37852;BME280;23691;52.486;4.650;2024-02-16T10:00:56;101092.09;;;12.39;82.44
37852;BME280;23691;52.486;4.650;2024-02-16T10:03:31;101100.31;;;12.38;82.73
37852;BME280;23691;52.486;4.650;2024-02-16T10:06:09;101096.81;;;12.37;82.93
37852;BME280;23691;52.486;4.650;2024-02-16T10:08:55;101094.94;;;12.38;83.36
37852;BME280;23691;52.486;4.650;2024-02-16T10:11:28;101104.19;;;12.43;83.22
37852;BME280;23691;52.486;4.650;2024-02-16T10:14:01;101110.34;;;12.52;83.39
37852;BME280;23691;52.486;4.650;2024-02-16T10:16:31;101137.03;;;12.54;83.36
37852;BME280;23691;52.486;4.650;2024-02-16T10:19:07;101166.41;;;12.55;83.40
37852;BME280;23691;52.486;4.650;2024-02-16T10:21:41;101164.72;;;12.54;83.47
37852;BME280;23691;52.486;4.650;2024-02-16T10:24:12;101173.78;;;12.53;83.54
37852;BME280;23691;52.486;4.650;2024-02-16T10:26:41;101184.69;;;12.52;83.76
37852;BME280;23691;52.486;4.650;2024-02-16T10:29:19;101191.22;;;12.49;83.70
37852;BME280;23691;52.486;4.650;2024-02-16T10:31:54;101190.72;;;12.45;83.89
37852;BME280;23691;52.486;4.650;2024-02-16T10:34:37;101184.69;;;12.43;84.00
37852;BME280;23691;52.486;4.650;2024-02-16T10:37:11;101180.81;;;12.46;84.03
37852;BME280;23691;52.486;4.650;2024-02-16T10:39:40;101208.00;;;12.51;84.03
37852;BME280;23691;52.486;4.650;2024-02-16T10:42:09;101205.63;;;12.56;84.06
37852;BME280;23691;52.486;4.650;2024-02-16T10:44:41;101211.34;;;12.53;84.00
37852;BME280;23691;52.486;4.650;2024-02-16T10:47:09;101218.91;;;12.58;83.93
37852;BME280;23691;52.486;4.650;2024-02-16T10:49:38;101220.41;;;12.60;83.84
37852;BME280;23691;52.486;4.650;2024-02-16T10:52:05;101225.09;;;12.58;84.04
37852;BME280;23691;52.486;4.650;2024-02-16T10:54:34;101213.00;;;12.62;84.26
37852;BME280;23691;52.486;4.650;2024-02-16T10:57:08;101218.88;;;12.74;83.98
37852;BME280;23691;52.486;4.650;2024-02-16T10:59:47;101208.66;;;12.78;84.03
37852;BME280;23691;52.486;4.650;2024-02-16T11:02:54;101232.97;;;12.76;84.07
37852;BME280;23691;52.486;4.650;2024-02-16T11:05:40;101253.28;;;12.71;83.86
37852;BME280;23691;52.486;4.650;2024-02-16T11:08:20;101249.41;;;12.65;83.91
37852;BME280;23691;52.486;4.650;2024-02-16T11:11:22;101265.69;;;12.63;83.56
37852;BME280;23691;52.486;4.650;2024-02-16T11:13:56;101276.25;;;12.57;83.42
37852;BME280;23691;52.486;4.650;2024-02-16T11:16:30;101281.28;;;12.52;83.44
37852;BME280;23691;52.486;4.650;2024-02-16T11:19:01;101282.31;;;12.51;83.24
37852;BME280;23691;52.486;4.650;2024-02-16T11:21:38;101287.50;;;12.52;83.21
37852;BME280;23691;52.486;4.650;2024-02-16T11:24:07;101298.06;;;12.54;83.26
37852;BME280;23691;52.486;4.650;2024-02-16T11:26:53;101298.56;;;12.57;83.04
37852;BME280;23691;52.486;4.650;2024-02-16T11:29:21;101295.38;;;12.62;83.08
37852;BME280;23691;52.486;4.650;2024-02-16T11:31:48;101302.44;;;12.71;82.91
37852;BME280;23691;52.486;4.650;2024-02-16T11:34:23;101297.25;;;12.86;82.37
37852;BME280;23691;52.486;4.650;2024-02-16T11:36:52;101292.84;;;13.01;82.07
37852;BME280;23691;52.486;4.650;2024-02-16T11:39:19;101294.69;;;13.17;81.94
37852;BME280;23691;52.486;4.650;2024-02-16T11:41:46;101308.81;;;13.27;81.78
37852;BME280;23691;52.486;4.650;2024-02-16T11:44:13;101317.72;;;13.28;81.77
37852;BME280;23691;52.486;4.650;2024-02-16T11:46:44;101323.41;;;13.25;81.58
37852;BME280;23691;52.486;4.650;2024-02-16T11:49:12;101318.53;;;13.20;81.41
37852;BME280;23691;52.486;4.650;2024-02-16T11:51:43;101333.47;;;13.23;81.06
37852;BME280;23691;52.486;4.650;2024-02-16T11:54:10;101335.81;;;13.26;81.07
37852;BME280;23691;52.486;4.650;2024-02-16T11:56:39;101335.13;;;13.24;80.81
37852;BME280;23691;52.486;4.650;2024-02-16T11:59:08;101339.69;;;13.23;80.79
37852;BME280;23691;52.486;4.650;2024-02-16T12:01:49;101347.59;;;13.25;80.73
37852;BME280;23691;52.486;4.650;2024-02-16T12:04:24;101355.66;;;13.25;80.49
37852;BME280;23691;52.486;4.650;2024-02-16T12:06:55;101357.81;;;13.21;80.40
37852;BME280;23691;52.486;4.650;2024-02-16T12:09:25;101353.81;;;13.17;80.40
37852;BME280;23691;52.486;4.650;2024-02-16T12:11:54;101371.75;;;13.17;80.35
37852;BME280;23691;52.486;4.650;2024-02-16T12:14:22;101368.56;;;13.21;80.24
37852;BME280;23691;52.486;4.650;2024-02-16T12:16:56;101373.09;;;13.21;80.09
37852;BME280;23691;52.486;4.650;2024-02-16T12:19:25;101375.81;;;13.13;80.23
37852;BME280;23691;52.486;4.650;2024-02-16T12:21:54;101380.84;;;13.16;80.46
37852;BME280;23691;52.486;4.650;2024-02-16T12:24:21;101380.50;;;13.19;80.28
37852;BME280;23691;52.486;4.650;2024-02-16T12:26:48;101387.88;;;13.17;80.64
37852;BME280;23691;52.486;4.650;2024-02-16T12:29:15;101397.63;;;13.18;80.38
37852;BME280;23691;52.486;4.650;2024-02-16T12:31:45;101396.28;;;13.22;79.95
37852;BME280;23691;52.486;4.650;2024-02-16T12:34:13;101397.47;;;13.19;80.21
37852;BME280;23691;52.486;4.650;2024-02-16T12:36:42;101402.50;;;13.22;80.40
37852;BME280;23691;52.486;4.650;2024-02-16T12:39:11;101407.91;;;13.30;80.19
37852;BME280;23691;52.486;4.650;2024-02-16T12:41:40;101418.81;;;13.37;80.25
37852;BME280;23691;52.486;4.650;2024-02-16T12:44:09;101410.06;;;13.43;80.25
37852;BME280;23691;52.486;4.650;2024-02-16T12:46:39;101418.16;;;13.51;80.37
37852;BME280;23691;52.486;4.650;2024-02-16T12:49:06;101425.50;;;13.58;79.76
37852;BME280;23691;52.486;4.650;2024-02-16T12:51:35;101427.03;;;13.60;79.73
37852;BME280;23691;52.486;4.650;2024-02-16T12:54:01;101424.81;;;13.72;79.38
37852;BME280;23691;52.486;4.650;2024-02-16T12:56:30;101429.66;;;13.85;79.15
37852;BME280;23691;52.486;4.650;2024-02-16T12:58:57;101430.00;;;13.90;78.68
37852;BME280;23691;52.486;4.650;2024-02-16T13:01:26;101437.69;;;13.93;78.49
37852;BME280;23691;52.486;4.650;2024-02-16T13:03:54;101437.53;;;13.94;78.16
37852;BME280;23691;52.486;4.650;2024-02-16T13:06:25;101450.03;;;13.79;78.20
37852;BME280;23691;52.486;4.650;2024-02-16T13:08:52;101448.69;;;13.75;78.46
37852;BME280;23691;52.486;4.650;2024-02-16T13:11:19;101450.53;;;13.74;78.28
37852;BME280;23691;52.486;4.650;2024-02-16T13:13:49;101463.97;;;13.74;78.20
37852;BME280;23691;52.486;4.650;2024-02-16T13:16:18;101478.59;;;13.72;78.21
37852;BME280;23691;52.486;4.650;2024-02-16T13:18:47;101475.56;;;13.75;78.27
37852;BME280;23691;52.486;4.650;2024-02-16T13:21:17;101478.72;;;13.95;77.71
37852;BME280;23691;52.486;4.650;2024-02-16T13:23:51;101481.94;;;13.99;77.39
37852;BME280;23691;52.486;4.650;2024-02-16T13:26:17;101479.75;;;13.94;77.49
37852;BME280;23691;52.486;4.650;2024-02-16T13:28:47;101481.41;;;14.03;77.38
37852;BME280;23691;52.486;4.650;2024-02-16T13:31:53;101487.81;;;14.10;77.18
37852;BME280;23691;52.486;4.650;2024-02-16T13:34:23;101488.28;;;14.14;77.25
37852;BME280;23691;52.486;4.650;2024-02-16T13:36:53;101486.44;;;14.06;77.55
37852;BME280;23691;52.486;4.650;2024-02-16T13:39:21;101491.13;;;14.21;77.00
37852;BME280;23691;52.486;4.650;2024-02-16T13:41:50;101504.22;;;14.24;77.17
37852;BME280;23691;52.486;4.650;2024-02-16T13:44:20;101492.63;;;14.15;77.23
37852;BME280;23691;52.486;4.650;2024-02-16T13:46:47;101491.50;;;14.01;77.38
37852;BME280;23691;52.486;4.650;2024-02-16T13:49:14;101508.47;;;14.02;77.50
37852;BME280;23691;52.486;4.650;2024-02-16T13:51:48;101507.16;;;14.06;77.53
37852;BME280;23691;52.486;4.650;2024-02-16T13:54:20;101510.16;;;14.03;77.48
37852;BME280;23691;52.486;4.650;2024-02-16T13:56:55;101515.41;;;13.96;77.62
37852;BME280;23691;52.486;4.650;2024-02-16T13:59:22;101520.78;;;13.96;77.83
37852;BME280;23691;52.486;4.650;2024-02-16T14:01:50;101524.97;;;13.99;78.02
37852;BME280;23691;52.486;4.650;2024-02-16T14:04:21;101527.47;;;14.00;78.32
37852;BME280;23691;52.486;4.650;2024-02-16T14:06:55;101526.81;;;14.06;78.10
37852;BME280;23691;52.486;4.650;2024-02-16T14:09:25;101525.78;;;14.07;78.03
37852;BME280;23691;52.486;4.650;2024-02-16T14:11:56;101536.22;;;14.10;77.98
37852;BME280;23691;52.486;4.650;2024-02-16T14:14:31;101536.75;;;14.06;78.11
37852;BME280;23691;52.486;4.650;2024-02-16T14:17:02;101535.53;;;14.00;78.24
37852;BME280;23691;52.486;4.650;2024-02-16T14:19:30;101545.81;;;13.96;78.18
37852;BME280;23691;52.486;4.650;2024-02-16T14:22:03;101539.41;;;13.98;78.29
37852;BME280;23691;52.486;4.650;2024-02-16T14:24:34;101553.53;;;14.00;78.06
37852;BME280;23691;52.486;4.650;2024-02-16T14:27:07;101554.38;;;14.00;78.08
37852;BME280;23691;52.486;4.650;2024-02-16T14:29:37;101550.84;;;14.00;78.24
37852;BME280;23691;52.486;4.650;2024-02-16T14:32:16;101554.72;;;14.05;78.28
37852;BME280;23691;52.486;4.650;2024-02-16T14:34:56;101555.06;;;14.02;78.14
37852;BME280;23691;52.486;4.650;2024-02-16T14:37:28;101563.63;;;13.98;78.40
37852;BME280;23691;52.486;4.650;2024-02-16T14:40:00;101567.69;;;14.02;78.49
37852;BME280;23691;52.486;4.650;2024-02-16T14:43:12;101570.22;;;14.03;78.09
37852;BME280;23691;52.486;4.650;2024-02-16T14:45:45;101572.56;;;14.06;77.93
37852;BME280;23691;52.486;4.650;2024-02-16T14:48:12;101578.94;;;13.89;78.44
37852;BME280;23691;52.486;4.650;2024-02-16T14:50:38;101582.00;;;13.86;78.21
37852;BME280;23691;52.486;4.650;2024-02-16T14:53:08;101583.66;;;13.87;78.36
37852;BME280;23691;52.486;4.650;2024-02-16T14:55:35;101583.16;;;13.91;78.37
37852;BME280;23691;52.486;4.650;2024-02-16T14:58:03;101587.50;;;13.92;78.14
37852;BME280;23691;52.486;4.650;2024-02-16T15:00:30;101593.06;;;13.91;78.42
37852;BME280;23691;52.486;4.650;2024-02-16T15:02:59;101597.59;;;13.90;78.31
37852;BME280;23691;52.486;4.650;2024-02-16T15:05:25;101598.44;;;13.83;78.55
37852;BME280;23691;52.486;4.650;2024-02-16T15:08:19;101603.50;;;13.94;77.79
37852;BME280;23691;52.486;4.650;2024-02-16T15:10:48;101613.09;;;13.88;77.87
37852;BME280;23691;52.486;4.650;2024-02-16T15:13:16;101620.13;;;13.89;77.85
37852;BME280;23691;52.486;4.650;2024-02-16T15:15:43;101622.50;;;13.84;77.74
37852;BME280;23691;52.486;4.650;2024-02-16T15:18:10;101626.34;;;13.73;77.85
37852;BME280;23691;52.486;4.650;2024-02-16T15:20:40;101624.50;;;13.74;77.80
37852;BME280;23691;52.486;4.650;2024-02-16T15:23:06;101634.41;;;13.73;77.87
37852;BME280;23691;52.486;4.650;2024-02-16T15:25:33;101639.47;;;13.68;78.08
37852;BME280;23691;52.486;4.650;2024-02-16T15:28:03;101646.16;;;13.64;78.18
37852;BME280;23691;52.486;4.650;2024-02-16T15:30:31;101645.47;;;13.62;78.25
37852;BME280;23691;52.486;4.650;2024-02-16T15:32:59;101646.16;;;13.56;78.28
37852;BME280;23691;52.486;4.650;2024-02-16T15:35:25;101647.47;;;13.52;78.56
37852;BME280;23691;52.486;4.650;2024-02-16T15:37:53;101655.53;;;13.52;78.62
37852;BME280;23691;52.486;4.650;2024-02-16T15:40:19;101655.34;;;13.53;78.54
37852;BME280;23691;52.486;4.650;2024-02-16T15:43:16;101662.78;;;13.51;78.42
37852;BME280;23691;52.486;4.650;2024-02-16T15:45:43;101671.16;;;13.48;78.52
37852;BME280;23691;52.486;4.650;2024-02-16T15:48:12;101672.00;;;13.49;78.57
37852;BME280;23691;52.486;4.650;2024-02-16T15:50:40;101675.00;;;13.46;78.52
37852;BME280;23691;52.486;4.650;2024-02-16T15:53:07;101680.22;;;13.47;78.43
37852;BME280;23691;52.486;4.650;2024-02-16T15:55:33;101679.19;;;13.40;78.62
37852;BME280;23691;52.486;4.650;2024-02-16T15:58:00;101679.69;;;13.36;78.92
37852;BME280;23691;52.486;4.650;2024-02-16T16:00:26;101682.53;;;13.34;78.75
37852;BME280;23691;52.486;4.650;2024-02-16T16:02:53;101688.84;;;13.25;78.91
37852;BME280;23691;52.486;4.650;2024-02-16T16:05:19;101704.28;;;13.23;78.96
37852;BME280;23691;52.486;4.650;2024-02-16T16:07:46;101700.44;;;13.25;78.84
37852;BME280;23691;52.486;4.650;2024-02-16T16:10:14;101712.03;;;13.26;78.78
37852;BME280;23691;52.486;4.650;2024-02-16T16:12:42;101713.03;;;13.25;78.68
37852;BME280;23691;52.486;4.650;2024-02-16T16:15:09;101719.47;;;13.32;78.55
37852;BME280;23691;52.486;4.650;2024-02-16T16:17:36;101726.03;;;13.29;78.42
37852;BME280;23691;52.486;4.650;2024-02-16T16:20:04;101717.28;;;13.27;78.50
37852;BME280;23691;52.486;4.650;2024-02-16T16:22:31;101727.69;;;13.30;78.51
37852;BME280;23691;52.486;4.650;2024-02-16T16:24:57;101733.16;;;13.21;78.84
37852;BME280;23691;52.486;4.650;2024-02-16T16:27:25;101748.78;;;13.17;78.89
37852;BME280;23691;52.486;4.650;2024-02-16T16:29:51;101743.19;;;13.10;79.33
37852;BME280;23691;52.486;4.650;2024-02-16T16:32:18;101744.19;;;13.09;79.24
37852;BME280;23691;52.486;4.650;2024-02-16T16:34:44;101748.19;;;13.05;79.31
37852;BME280;23691;52.486;4.650;2024-02-16T16:37:11;101744.31;;;13.00;79.68
37852;BME280;23691;52.486;4.650;2024-02-16T16:39:37;101754.19;;;12.99;79.61
37852;BME280;23691;52.486;4.650;2024-02-16T16:42:05;101760.56;;;12.98;79.60
37852;BME280;23691;52.486;4.650;2024-02-16T16:44:31;101767.09;;;12.96;79.76
37852;BME280;23691;52.486;4.650;2024-02-16T16:46:58;101766.84;;;13.07;79.46
37852;BME280;23691;52.486;4.650;2024-02-16T16:49:24;101777.28;;;13.10;79.24
37852;BME280;23691;52.486;4.650;2024-02-16T16:51:50;101777.28;;;13.10;79.01
37852;BME280;23691;52.486;4.650;2024-02-16T16:54:16;101787.19;;;13.09;78.98
37852;BME280;23691;52.486;4.650;2024-02-16T16:56:43;101786.31;;;13.09;79.09
37852;BME280;23691;52.486;4.650;2024-02-16T16:59:09;101795.38;;;13.08;79.23
37852;BME280;23691;52.486;4.650;2024-02-16T17:01:37;101800.91;;;13.06;79.02
37852;BME280;23691;52.486;4.650;2024-02-16T17:04:04;101807.75;;;13.01;79.14
37852;BME280;23691;52.486;4.650;2024-02-16T17:06:30;101811.94;;;12.95;79.33
37852;BME280;23691;52.486;4.650;2024-02-16T17:08:56;101807.53;;;12.94;79.43
37852;BME280;23691;52.486;4.650;2024-02-16T17:11:23;101819.16;;;12.95;79.37
37852;BME280;23691;52.486;4.650;2024-02-16T17:13:50;101829.19;;;12.93;79.41
37852;BME280;23691;52.486;4.650;2024-02-16T17:16:16;101836.41;;;12.92;79.38
37852;BME280;23691;52.486;4.650;2024-02-16T17:18:42;101833.19;;;12.88;79.44
37852;BME280;23691;52.486;4.650;2024-02-16T17:21:07;101840.56;;;12.86;79.55
37852;BME280;23691;52.486;4.650;2024-02-16T17:23:33;101844.56;;;12.82;79.42
37852;BME280;23691;52.486;4.650;2024-02-16T17:25:59;101844.84;;;12.79;79.47
37852;BME280;23691;52.486;4.650;2024-02-16T17:28:25;101861.97;;;12.78;79.37
37852;BME280;23691;52.486;4.650;2024-02-16T17:30:50;101862.94;;;12.77;79.49
37852;BME280;23691;52.486;4.650;2024-02-16T17:33:16;101863.97;;;12.76;79.36
37852;BME280;23691;52.486;4.650;2024-02-16T17:35:42;101873.03;;;12.75;79.35
37852;BME280;23691;52.486;4.650;2024-02-16T17:38:33;101884.75;;;12.74;79.45
37852;BME280;23691;52.486;4.650;2024-02-16T17:40:59;101887.44;;;12.74;79.33
37852;BME280;23691;52.486;4.650;2024-02-16T17:43:33;101874.00;;;12.74;79.36
37852;BME280;23691;52.486;4.650;2024-02-16T17:46:02;101886.59;;;12.74;79.36
37852;BME280;23691;52.486;4.650;2024-02-16T17:48:27;101898.50;;;12.71;79.29
37852;BME280;23691;52.486;4.650;2024-02-16T17:50:55;101897.78;;;12.69;79.28
37852;BME280;23691;52.486;4.650;2024-02-16T17:53:21;101910.84;;;12.64;79.52
37852;BME280;23691;52.486;4.650;2024-02-16T17:55:47;101913.50;;;12.64;79.56
37852;BME280;23691;52.486;4.650;2024-02-16T17:58:12;101928.22;;;12.60;79.47
37852;BME280;23691;52.486;4.650;2024-02-16T18:00:38;101928.41;;;12.58;79.48
37852;BME280;23691;52.486;4.650;2024-02-16T18:03:04;101933.91;;;12.57;79.41
37852;BME280;23691;52.486;4.650;2024-02-16T18:05:30;101932.94;;;12.58;79.22
37852;BME280;23691;52.486;4.650;2024-02-16T18:07:56;101927.69;;;12.56;79.20
37852;BME280;23691;52.486;4.650;2024-02-16T18:10:21;101939.59;;;12.54;79.07
37852;BME280;23691;52.486;4.650;2024-02-16T18:12:47;101940.72;;;12.51;79.11
37852;BME280;23691;52.486;4.650;2024-02-16T18:15:14;101943.88;;;12.46;79.39
37852;BME280;23691;52.486;4.650;2024-02-16T18:17:39;101946.53;;;12.46;78.97
37852;BME280;23691;52.486;4.650;2024-02-16T18:20:06;101947.84;;;12.42;79.09
37852;BME280;23691;52.486;4.650;2024-02-16T18:22:32;101946.16;;;12.41;79.13
37852;BME280;23691;52.486;4.650;2024-02-16T18:24:58;101949.97;;;12.39;79.05
37852;BME280;23691;52.486;4.650;2024-02-16T18:27:27;101954.34;;;12.40;79.04
37852;BME280;23691;52.486;4.650;2024-02-16T18:29:52;101964.25;;;12.39;78.96
37852;BME280;23691;52.486;4.650;2024-02-16T18:32:18;101966.22;;;12.37;79.09
37852;BME280;23691;52.486;4.650;2024-02-16T18:34:44;101970.63;;;12.38;78.94